Los Angeles, California
Traffic Map
Current Weather Conditions
Los Angeles, California
Overcast
Overcast
16°
Feels Like: 16°
Wind Chill: 16° Ceiling: 3100
Heat Index: 16° Visibility: 10mi
Dew Point: Wind: 0mph
Humidity: 62% Direction: ° ()
Pressure: 29.9in Gusts: 0mph
Raw Report DataKCQT 211247Z AUTO 00000KT 10SM OVC031 16/08 A2990 RMK AO2 SLP123 T01560083
Traffic Incident Summary
Active as of:
Severity:
Category:
InformationThere was an issue retrieving the traffic information for this location. Please try a different location or try again shortly.
Advertisements
Track Severe Weather on mobile